createdAt,value
2018-11-13T00:02:26.750Z,26.07
2018-11-13T00:05:00.537Z,26.57
2018-11-13T00:07:35.351Z,28.90
2018-11-13T00:10:10.047Z,25.90
2018-11-13T00:12:44.947Z,27.73
2018-11-13T00:15:18.819Z,30.67
2018-11-13T00:17:53.751Z,30.57
2018-11-13T00:20:27.531Z,29.77
2018-11-13T00:23:02.419Z,31.80
2018-11-13T00:25:36.221Z,31.00
2018-11-13T00:28:10.092Z,29.33
2018-11-13T00:30:43.840Z,28.93
2018-11-13T00:33:19.682Z,28.23
2018-11-13T00:35:53.532Z,29.17
2018-11-13T00:38:29.430Z,28.87
2018-11-13T00:41:03.167Z,28.40
2018-11-13T00:43:38.045Z,27.57
2018-11-13T00:46:11.794Z,25.90
2018-11-13T00:48:45.681Z,27.40
2018-11-13T00:51:19.485Z,28.47
2018-11-13T00:53:55.433Z,32.50
2018-11-13T00:56:29.189Z,29.13
2018-11-13T00:59:04.152Z,31.20
2018-11-13T01:01:37.958Z,29.80
2018-11-13T01:04:13.844Z,31.47
2018-11-13T01:06:47.608Z,25.83
2018-11-13T01:09:21.493Z,28.70
2018-11-13T01:11:55.437Z,25.83
2018-11-13T01:14:31.333Z,25.47
2018-11-13T01:17:05.154Z,29.67
2018-11-13T01:19:39.070Z,27.80
2018-11-13T01:22:12.824Z,26.43
2018-11-13T01:24:47.691Z,23.30
2018-11-13T01:27:21.477Z,22.60
2018-11-13T01:29:58.161Z,28.43
2018-11-13T01:32:31.896Z,26.90
2018-11-13T01:35:08.514Z,27.17
2018-11-13T01:37:42.336Z,27.67
2018-11-13T01:40:20.625Z,26.07
2018-11-13T01:42:54.356Z,26.53
2018-11-13T01:45:31.441Z,28.93
2018-11-13T01:48:05.309Z,27.37
2018-11-13T01:50:41.320Z,25.53
2018-11-13T01:53:15.063Z,26.67
2018-11-13T01:55:49.928Z,28.80
2018-11-13T01:58:23.697Z,27.13
2018-11-13T02:00:58.570Z,29.63
2018-11-13T02:03:32.340Z,28.93
2018-11-13T02:06:06.801Z,27.53
2018-11-13T02:08:40.561Z,28.87
2018-11-13T02:11:14.401Z,26.80
2018-11-13T02:13:48.148Z,25.23
2018-11-13T02:16:22.055Z,25.37
2018-11-13T02:18:55.793Z,26.50
2018-11-13T02:21:29.808Z,26.70
2018-11-13T02:24:03.588Z,24.67
2018-11-13T02:26:38.473Z,25.13
2018-11-13T02:29:12.297Z,26.00
2018-11-13T02:31:47.120Z,25.47
2018-11-13T02:34:20.892Z,25.37
2018-11-13T02:36:54.713Z,25.23
2018-11-13T02:39:28.489Z,24.97
2018-11-13T02:42:02.366Z,24.17
2018-11-13T02:44:36.293Z,24.33
2018-11-13T02:47:10.137Z,25.73
2018-11-13T02:49:44.040Z,25.70
2018-11-13T02:52:18.067Z,27.30
2018-11-13T02:54:51.862Z,27.77
2018-11-13T02:57:27.808Z,26.03
2018-11-13T03:00:01.620Z,28.23
2018-11-13T03:02:37.557Z,28.40
2018-11-13T03:05:14.055Z,29.00
2018-11-13T03:07:48.908Z,30.90
2018-11-13T03:10:22.732Z,28.37
2018-11-13T03:12:56.641Z,28.80
2018-11-13T03:15:30.414Z,29.90
2018-11-13T03:18:05.291Z,34.77
2018-11-13T03:20:39.390Z,32.90
2018-11-13T03:23:13.294Z,33.60
2018-11-13T03:25:47.059Z,34.07
2018-11-13T03:28:20.909Z,33.73
2018-11-13T03:30:54.748Z,33.20
2018-11-13T03:33:29.778Z,35.43
2018-11-13T03:36:03.528Z,37.93
2018-11-13T03:38:38.414Z,38.03
2018-11-13T03:41:12.165Z,39.50
2018-11-13T03:43:50.086Z,35.50
2018-11-13T03:46:23.819Z,34.00
2018-11-13T03:48:57.699Z,37.50
2018-11-13T03:51:31.467Z,31.17
2018-11-13T03:54:06.910Z,33.17
2018-11-13T03:56:40.663Z,37.03
2018-11-13T04:02:13.833Z,37.70
2018-11-13T04:04:47.623Z,37.07
2018-11-13T04:07:28.556Z,38.73
2018-11-13T04:10:02.344Z,39.00
2018-11-13T04:12:42.603Z,35.43
2018-11-13T04:15:17.742Z,35.60
2018-11-13T04:17:52.645Z,34.90
2018-11-13T04:20:26.443Z,39.00
2018-11-13T04:23:04.773Z,39.27
2018-11-13T04:25:38.622Z,36.97
2018-11-13T04:28:16.970Z,38.43
2018-11-13T04:30:50.961Z,36.10
2018-11-13T04:33:29.230Z,39.23
2018-11-13T04:36:03.010Z,32.37
2018-11-13T04:38:47.259Z,38.47
2018-11-13T04:41:21.054Z,34.80
2018-11-13T04:44:00.481Z,34.90
2018-11-13T04:46:34.268Z,37.50
2018-11-13T04:49:08.253Z,39.90
2018-11-13T04:51:42.089Z,39.90
2018-11-13T04:54:28.121Z,43.37
2018-11-13T04:57:01.938Z,40.77
2018-11-13T04:59:47.993Z,43.93
2018-11-13T05:02:21.830Z,42.13
2018-11-13T05:04:57.647Z,50.97
2018-11-13T05:07:31.443Z,41.90
2018-11-13T05:10:22.191Z,49.97
2018-11-13T05:12:55.967Z,53.37
2018-11-13T05:15:34.459Z,52.23
2018-11-13T05:18:08.287Z,51.73
2018-11-13T05:20:43.183Z,56.37
2018-11-13T05:23:17.080Z,52.83
2018-11-13T05:25:52.065Z,50.77
2018-11-13T05:28:25.911Z,55.17
2018-11-13T05:31:04.171Z,53.13
2018-11-13T05:33:38.019Z,52.67
2018-11-13T05:36:12.865Z,46.37
2018-11-13T05:38:46.695Z,57.23
2018-11-13T05:41:22.028Z,54.40
2018-11-13T05:43:55.863Z,55.93
2018-11-13T05:46:31.699Z,51.47
2018-11-13T05:49:05.973Z,52.87
2018-11-13T05:51:45.055Z,54.93
2018-11-13T05:54:18.878Z,50.73
2018-11-13T05:56:53.880Z,54.70
2018-11-13T05:59:27.646Z,56.67
2018-11-13T06:02:02.642Z,62.60
2018-11-13T06:04:36.555Z,58.17
2018-11-13T06:07:10.861Z,57.50
2018-11-13T06:09:44.660Z,57.43
2018-11-13T06:12:19.001Z,57.47
2018-11-13T06:14:52.835Z,61.20
2018-11-13T06:17:28.787Z,55.37
2018-11-13T06:20:03.181Z,58.53
2018-11-13T06:22:37.554Z,56.93
2018-11-13T06:25:13.169Z,58.63
2018-11-13T06:27:49.933Z,56.20
2018-11-13T06:30:24.871Z,55.27
2018-11-13T06:32:59.136Z,57.03
2018-11-13T06:35:32.938Z,58.70
2018-11-13T06:38:06.865Z,59.50
2018-11-13T06:40:40.726Z,64.03
2018-11-13T06:43:15.098Z,67.07
2018-11-13T06:45:48.951Z,65.13
2018-11-13T06:48:23.841Z,60.67
2018-11-13T06:50:57.706Z,63.00
2018-11-13T06:53:42.865Z,69.00
2018-11-13T06:56:21.090Z,69.50
2018-11-13T06:58:54.858Z,68.93
2018-11-13T07:01:29.716Z,68.03
2018-11-13T07:04:03.486Z,66.53
2018-11-13T07:06:41.498Z,64.67
2018-11-13T07:09:15.271Z,67.03
2018-11-13T07:11:51.325Z,67.23
2018-11-13T07:14:25.077Z,74.03
2018-11-13T07:17:00.052Z,76.83
2018-11-13T07:19:33.803Z,72.97
2018-11-13T07:22:11.848Z,76.67
2018-11-13T07:24:45.636Z,73.20
2018-11-13T07:27:22.938Z,72.00
2018-11-13T07:29:56.849Z,72.23
2018-11-13T07:32:30.832Z,61.70
2018-11-13T07:35:05.085Z,64.17
2018-11-13T07:37:40.124Z,65.93
2018-11-13T07:40:13.864Z,63.60
2018-11-13T07:42:47.854Z,57.83
2018-11-13T07:45:21.639Z,58.93
2018-11-13T07:48:01.696Z,70.37
2018-11-13T07:50:35.644Z,62.17
2018-11-13T07:53:11.005Z,65.30
2018-11-13T07:55:44.783Z,67.17
2018-11-13T07:58:24.328Z,60.43
2018-11-13T08:00:58.263Z,65.43
2018-11-13T08:03:35.913Z,57.23
2018-11-13T08:06:09.923Z,64.77
2018-11-13T08:08:44.332Z,58.20
2018-11-13T08:11:18.116Z,60.67
2018-11-13T08:13:55.346Z,60.23
2018-11-13T08:16:29.179Z,60.43
2018-11-13T08:19:04.677Z,58.80
2018-11-13T08:21:38.446Z,64.57
2018-11-13T08:24:18.595Z,62.63
2018-11-13T08:26:52.400Z,60.83
2018-11-13T08:32:24.677Z,69.20
2018-11-13T08:34:58.476Z,64.67
2018-11-13T08:37:32.379Z,64.00
2018-11-13T08:40:08.052Z,61.93
2018-11-13T08:42:42.395Z,59.17
2018-11-13T08:45:16.536Z,69.80
2018-11-13T08:47:50.494Z,66.17
2018-11-13T08:50:24.365Z,68.07
2018-11-13T08:52:58.466Z,63.13
2018-11-13T08:55:32.260Z,68.47
2018-11-13T08:58:07.055Z,63.90
2018-11-13T09:00:40.848Z,62.93
2018-11-13T09:03:14.682Z,63.33
2018-11-13T09:05:48.490Z,61.33
2018-11-13T09:08:23.422Z,64.83
2018-11-13T09:10:57.646Z,65.43
2018-11-13T09:13:31.454Z,73.13
2018-11-13T09:16:05.579Z,74.07
2018-11-13T09:18:39.423Z,67.53
2018-11-13T09:21:13.239Z,67.77
2018-11-13T09:23:48.159Z,67.90
2018-11-13T09:26:22.071Z,59.43
2018-11-13T09:28:55.940Z,62.50
2018-11-13T09:31:29.948Z,61.03
2018-11-13T09:34:04.962Z,57.37
2018-11-13T09:36:38.805Z,59.33
2018-11-13T09:39:13.158Z,61.47
2018-11-13T09:41:47.254Z,63.33
2018-11-13T09:44:21.278Z,60.70
2018-11-13T09:46:55.125Z,58.30
2018-11-13T09:49:28.954Z,63.63
2018-11-13T09:52:02.747Z,54.40
2018-11-13T09:54:36.545Z,53.77
2018-11-13T09:57:10.351Z,57.63
2018-11-13T09:59:44.223Z,53.97
2018-11-13T10:02:18.327Z,55.80
2018-11-13T10:04:53.824Z,49.03
2018-11-13T10:07:27.179Z,51.17
2018-11-13T10:10:02.137Z,54.33
2018-11-13T10:12:36.058Z,47.37
2018-11-13T10:15:14.278Z,55.70
2018-11-13T10:17:48.171Z,51.93
2018-11-13T10:20:22.231Z,54.03
2018-11-13T10:22:57.002Z,54.20
2018-11-13T10:25:30.846Z,49.20
2018-11-13T10:28:04.701Z,57.90
2018-11-13T10:30:39.491Z,54.00
2018-11-13T10:33:13.310Z,48.53
2018-11-13T10:35:48.177Z,46.63
2018-11-13T10:38:22.000Z,44.37
2018-11-13T10:40:57.086Z,44.07
2018-11-13T10:43:31.017Z,44.47
2018-11-13T10:46:06.190Z,46.10
2018-11-13T10:48:40.054Z,46.17
2018-11-13T10:51:21.842Z,45.17
2018-11-13T10:53:55.738Z,46.00
2018-11-13T10:56:29.859Z,42.30
2018-11-13T10:59:03.878Z,47.67
2018-11-13T11:03:47.936Z,46.67
2018-11-13T11:06:21.693Z,42.07
2018-11-13T11:08:55.509Z,41.37
2018-11-13T11:11:29.431Z,43.90
2018-11-13T11:14:04.925Z,41.70
2018-11-13T11:16:38.741Z,40.77
2018-11-13T11:19:23.202Z,42.63
2018-11-13T11:21:57.138Z,37.57
2018-11-13T11:24:31.140Z,40.50
2018-11-13T11:27:04.923Z,36.37
2018-11-13T11:29:39.721Z,34.47
2018-11-13T11:32:13.501Z,33.83
2018-11-13T11:34:51.517Z,30.37
2018-11-13T11:37:25.885Z,34.88
2018-11-13T11:39:59.746Z,29.92
2018-11-13T11:42:33.609Z,32.43
2018-11-13T11:45:14.201Z,33.37
2018-11-13T11:47:47.984Z,30.20
2018-11-13T11:50:22.828Z,31.00
2018-11-13T11:52:56.671Z,26.07
2018-11-13T11:55:32.585Z,27.50
2018-11-13T11:58:06.922Z,27.50
2018-11-13T12:00:41.918Z,28.03
2018-11-13T12:03:16.393Z,28.45
2018-11-13T12:05:51.811Z,28.17
2018-11-13T12:08:25.634Z,27.50
2018-11-13T12:10:59.512Z,26.93
2018-11-13T12:13:33.408Z,25.10
2018-11-13T12:16:07.844Z,26.85
2018-11-13T12:18:42.197Z,26.60
2018-11-13T12:21:16.236Z,27.83
2018-11-13T12:23:50.192Z,26.97
2018-11-13T12:29:08.385Z,27.87
2018-11-13T12:31:43.244Z,35.20
2018-11-13T12:34:17.043Z,34.10
2018-11-13T12:36:55.750Z,33.90
2018-11-13T12:39:29.547Z,31.33
2018-11-13T12:42:07.813Z,33.67
2018-11-13T12:44:41.657Z,35.37
2018-11-13T12:47:16.501Z,35.67
2018-11-13T12:49:50.324Z,33.33
2018-11-13T12:52:25.154Z,32.80
2018-11-13T12:54:58.999Z,30.67
2018-11-13T13:06:31.942Z,33.23
2018-11-13T13:09:08.184Z,27.77
2018-11-13T13:17:40.266Z,23.83
2018-11-13T13:20:17.077Z,24.15
2018-11-13T13:23:10.064Z,21.50
2018-11-13T13:25:44.569Z,24.10
2018-11-13T13:34:20.908Z,22.95
2018-11-13T13:36:55.339Z,23.90
2018-11-13T13:45:40.090Z,20.88
2018-11-13T13:48:14.666Z,21.27
2018-11-13T13:51:03.359Z,23.35
2018-11-13T13:53:37.882Z,23.55
2018-11-13T13:56:26.365Z,29.60
2018-11-13T13:59:00.259Z,18.97
2018-11-13T14:01:39.376Z,19.87
2018-11-13T14:04:13.807Z,19.42
2018-11-13T14:06:55.560Z,21.20
2018-11-13T14:09:29.947Z,21.27
2018-11-13T14:12:25.892Z,25.25
2018-11-13T14:14:59.855Z,23.30
2018-11-13T14:17:34.449Z,24.82
2018-11-13T14:34:56.865Z,24.80
2018-11-13T14:37:30.730Z,24.27
2018-11-13T14:40:17.475Z,22.83
2018-11-13T14:42:51.448Z,26.47
2018-11-13T14:45:37.518Z,30.27
2018-11-13T14:48:11.951Z,34.20
2018-11-13T14:50:52.213Z,16.07
2018-11-13T14:53:26.179Z,11.20
2018-11-13T14:56:05.421Z,8.47
2018-11-13T14:58:39.349Z,11.97
2018-11-13T15:01:13.301Z,12.57
2018-11-13T15:03:47.158Z,16.60
2018-11-13T15:06:22.234Z,14.07
2018-11-13T15:08:56.095Z,18.50
2018-11-13T15:11:46.261Z,20.57
2018-11-13T15:14:21.861Z,20.30
2018-11-13T15:17:13.715Z,16.93
2018-11-13T15:19:47.786Z,20.37
2018-11-13T15:22:40.462Z,21.20
2018-11-13T15:25:15.859Z,27.77
2018-11-13T15:34:08.078Z,18.53
2018-11-13T15:36:42.176Z,22.43
2018-11-13T15:39:25.034Z,24.40
2018-11-13T15:41:59.043Z,22.50
2018-11-13T15:44:35.022Z,24.03
2018-11-13T15:47:09.019Z,22.93
2018-11-13T15:49:43.091Z,24.63
2018-11-13T15:52:17.153Z,25.23
2018-11-13T15:55:10.278Z,28.40
2018-11-13T15:57:44.784Z,30.77
2018-11-13T16:00:34.726Z,29.53
2018-11-13T16:09:09.468Z,31.23
2018-11-13T16:11:43.415Z,18.70
2018-11-13T16:14:21.646Z,17.37
2018-11-13T16:16:55.509Z,13.97
2018-11-13T16:22:28.313Z,8.80
2018-11-13T16:25:02.062Z,12.13
2018-11-13T16:27:37.030Z,8.40
2018-11-13T16:30:13.211Z,9.90
2018-11-13T16:32:47.913Z,9.47
2018-11-13T16:35:22.702Z,10.53
2018-11-13T16:37:58.138Z,10.77
2018-11-13T16:40:32.720Z,13.80
2018-11-13T16:43:07.209Z,11.57
2018-11-13T16:45:41.014Z,11.07
2018-11-13T16:48:15.646Z,17.50
2018-11-13T16:50:50.130Z,13.57
2018-11-13T16:53:25.801Z,11.83
2018-11-13T16:56:03.078Z,12.30
2018-11-13T16:58:37.893Z,12.17
2018-11-13T17:01:11.687Z,12.30
2018-11-13T17:03:47.816Z,13.20
2018-11-13T17:06:21.721Z,12.57
2018-11-13T17:08:56.439Z,12.13
2018-11-13T17:11:30.400Z,13.30
2018-11-13T17:14:08.958Z,14.30
2018-11-13T17:16:42.886Z,12.77
2018-11-13T17:19:21.656Z,18.63
2018-11-13T17:21:55.576Z,16.07
2018-11-13T17:24:31.429Z,12.90
2018-11-13T17:27:05.251Z,12.00
2018-11-13T17:29:40.271Z,12.20
2018-11-13T17:32:14.028Z,11.83
2018-11-13T17:34:52.672Z,11.10
2018-11-13T17:37:27.548Z,12.73
2018-11-13T17:40:00.576Z,16.37
2018-11-13T17:42:34.433Z,16.63
2018-11-13T17:45:13.991Z,18.27
2018-11-13T17:47:47.928Z,13.87
2018-11-13T17:50:30.532Z,17.10
2018-11-13T17:53:04.731Z,15.37
2018-11-13T17:55:39.152Z,13.10
2018-11-13T17:58:14.312Z,19.10
2018-11-13T18:00:59.631Z,17.77
2018-11-13T18:03:33.384Z,19.27
2018-11-13T18:06:23.241Z,18.97
2018-11-13T18:08:57.001Z,19.43
2018-11-13T18:14:30.300Z,22.60
2018-11-13T18:17:04.279Z,21.57
2018-11-13T18:19:38.276Z,17.30
2018-11-13T18:22:12.295Z,22.23
2018-11-13T18:24:46.158Z,18.67
2018-11-13T18:27:19.987Z,23.53
2018-11-13T18:29:54.909Z,23.37
2018-11-13T18:32:28.727Z,19.23
2018-11-13T18:35:02.720Z,20.70
2018-11-13T18:37:36.772Z,17.87
2018-11-13T18:40:13.132Z,20.23
2018-11-13T18:42:47.863Z,22.33
2018-11-13T18:45:24.180Z,19.80
2018-11-13T18:47:58.004Z,19.50
2018-11-13T18:50:33.119Z,19.10
2018-11-13T18:53:06.950Z,19.27
2018-11-13T18:55:40.814Z,20.07
2018-11-13T18:58:14.602Z,15.17
2018-11-13T19:00:49.392Z,18.33
2018-11-13T19:03:23.168Z,17.23
2018-11-13T19:05:57.042Z,19.60
2018-11-13T19:08:30.864Z,13.80
2018-11-13T19:11:06.233Z,18.53
2018-11-13T19:13:40.156Z,14.83
2018-11-13T19:16:13.959Z,17.23
2018-11-13T19:18:47.812Z,14.17
2018-11-13T19:21:25.695Z,15.13
2018-11-13T19:23:59.583Z,18.10
2018-11-13T19:26:35.539Z,15.13
2018-11-13T19:29:09.442Z,15.67
2018-11-13T19:31:43.596Z,18.90
2018-11-13T19:34:17.524Z,20.80
2018-11-13T19:36:51.899Z,18.47
2018-11-13T19:39:25.921Z,21.13
2018-11-13T19:42:00.072Z,17.40
2018-11-13T19:44:34.228Z,19.60
2018-11-13T19:47:09.272Z,17.23
2018-11-13T19:49:43.283Z,24.57
2018-11-13T19:52:17.450Z,22.60
2018-11-13T19:54:51.298Z,16.93
2018-11-13T19:57:25.945Z,23.47
2018-11-13T19:59:59.974Z,21.30
2018-11-13T20:02:35.899Z,20.07
2018-11-13T20:05:11.329Z,25.80
2018-11-13T20:07:45.742Z,21.03
2018-11-13T20:10:20.877Z,21.70
2018-11-13T20:12:55.831Z,21.23
2018-11-13T20:15:30.961Z,17.67
2018-11-13T20:18:05.054Z,17.43
2018-11-13T20:20:40.368Z,23.73
2018-11-13T20:23:14.137Z,22.40
2018-11-13T20:25:50.026Z,19.30
2018-11-13T20:28:23.807Z,22.20
2018-11-13T20:30:59.092Z,18.53
2018-11-13T20:33:33.008Z,17.80
2018-11-13T20:36:08.129Z,14.20
2018-11-13T20:38:41.917Z,17.70
2018-11-13T20:41:16.765Z,16.50
2018-11-13T20:43:50.553Z,15.93
2018-11-13T20:46:24.561Z,15.83
2018-11-13T20:48:58.305Z,16.27
2018-11-13T20:51:32.316Z,15.03
2018-11-13T20:54:06.266Z,19.10
2018-11-13T20:56:40.118Z,12.80
2018-11-13T20:59:13.869Z,12.63
2018-11-13T21:01:49.850Z,14.20
2018-11-13T21:04:23.765Z,17.30
2018-11-13T21:06:57.581Z,13.70
2018-11-13T21:09:31.354Z,12.23
2018-11-13T21:12:05.536Z,15.63
2018-11-13T21:14:39.475Z,12.60
2018-11-13T21:17:14.929Z,18.67
2018-11-13T21:19:49.189Z,11.47
2018-11-13T21:22:23.589Z,12.60
2018-11-13T21:24:57.444Z,13.53
2018-11-13T21:27:32.007Z,14.73
2018-11-13T21:30:09.430Z,12.00
2018-11-13T21:32:46.085Z,11.83
2018-11-13T21:35:19.925Z,17.60
2018-11-13T21:38:05.738Z,17.63
2018-11-13T21:40:39.476Z,9.90
2018-11-13T21:43:13.313Z,11.83
2018-11-13T21:45:47.100Z,12.77
2018-11-13T21:48:21.971Z,10.97
2018-11-13T21:50:55.748Z,12.17
2018-11-13T21:53:30.580Z,6.60
2018-11-13T21:56:04.768Z,8.50
2018-11-13T21:58:38.640Z,16.30
2018-11-13T22:01:12.441Z,14.13
2018-11-13T22:03:46.447Z,16.00
2018-11-13T22:06:20.392Z,12.53
2018-11-13T22:08:55.237Z,12.83
2018-11-13T22:11:28.997Z,10.90
2018-11-13T22:14:03.957Z,11.23
2018-11-13T22:16:37.864Z,12.17
2018-11-13T22:19:13.771Z,13.33
2018-11-13T22:21:47.521Z,11.60
2018-11-13T22:24:22.372Z,11.30
2018-11-13T22:26:56.116Z,11.77
2018-11-13T22:29:30.137Z,13.67
2018-11-13T22:32:04.049Z,19.67
2018-11-13T22:34:38.917Z,9.57
2018-11-13T22:37:12.675Z,11.20
2018-11-13T22:39:47.522Z,9.63
2018-11-13T22:42:21.449Z,10.27
2018-11-13T22:44:55.279Z,12.17
2018-11-13T22:47:29.103Z,9.90
2018-11-13T22:50:05.000Z,15.20
2018-11-13T22:52:38.958Z,15.23
2018-11-13T22:55:14.409Z,12.60
2018-11-13T22:57:49.067Z,11.50
2018-11-13T23:00:30.219Z,9.87
2018-11-13T23:03:04.180Z,12.23
2018-11-13T23:05:39.308Z,10.53
2018-11-13T23:08:14.424Z,13.27
2018-11-13T23:10:49.269Z,12.43
2018-11-13T23:13:23.381Z,16.43
2018-11-13T23:15:58.211Z,12.20
2018-11-13T23:18:31.970Z,13.23
2018-11-13T23:21:05.855Z,9.10
2018-11-13T23:23:39.618Z,13.23
2018-11-13T23:26:14.414Z,15.03
2018-11-13T23:28:48.138Z,12.77
2018-11-13T23:31:21.953Z,7.77
2018-11-13T23:33:56.761Z,12.53
2018-11-13T23:36:30.548Z,11.43
2018-11-13T23:39:05.856Z,13.03
2018-11-13T23:41:39.616Z,13.87
2018-11-13T23:44:13.463Z,18.63
2018-11-13T23:46:47.392Z,13.33
2018-11-13T23:49:22.232Z,12.00
2018-11-13T23:51:56.212Z,12.67
2018-11-13T23:54:34.986Z,10.70
2018-11-13T23:57:08.794Z,13.87
2018-11-13T23:59:42.631Z,14.47
